sensor_id;sensor_type;location;lat;lon;timestamp;P1;durP1;ratioP1;P2;durP2;ratioP2
84652;SDS011;74883;48.882;2.092;2024-03-23T00:55:26;27.13;;;7.68;;
84652;SDS011;74883;48.882;2.092;2024-03-23T00:57:52;23.83;;;5.10;;
84652;SDS011;74883;48.882;2.092;2024-03-23T01:00:17;22.03;;;5.53;;
84652;SDS011;74883;48.882;2.092;2024-03-23T01:02:42;22.88;;;6.72;;
84652;SDS011;74883;48.882;2.092;2024-03-23T01:05:08;17.27;;;4.80;;
84652;SDS011;74883;48.882;2.092;2024-03-23T01:07:33;24.92;;;5.25;;
84652;SDS011;74883;48.882;2.092;2024-03-23T01:09:59;17.98;;;4.90;;
84652;SDS011;74883;48.882;2.092;2024-03-23T01:12:24;24.17;;;6.03;;
84652;SDS011;74883;48.882;2.092;2024-03-23T01:14:49;18.87;;;5.33;;
84652;SDS011;74883;48.882;2.092;2024-03-23T01:17:15;15.63;;;3.90;;
84652;SDS011;74883;48.882;2.092;2024-03-23T01:19:40;17.38;;;3.33;;
84652;SDS011;74883;48.882;2.092;2024-03-23T01:22:06;11.98;;;4.10;;
84652;SDS011;74883;48.882;2.092;2024-03-23T01:24:32;13.55;;;2.65;;
84652;SDS011;74883;48.882;2.092;2024-03-23T01:26:58;26.70;;;5.68;;
84652;SDS011;74883;48.882;2.092;2024-03-23T01:29:23;21.03;;;4.07;;
84652;SDS011;74883;48.882;2.092;2024-03-23T01:31:48;15.60;;;3.70;;
84652;SDS011;74883;48.882;2.092;2024-03-23T01:34:14;20.20;;;4.47;;
84652;SDS011;74883;48.882;2.092;2024-03-23T01:36:39;20.47;;;5.17;;
84652;SDS011;74883;48.882;2.092;2024-03-23T01:39:05;15.73;;;3.42;;
84652;SDS011;74883;48.882;2.092;2024-03-23T01:41:30;19.30;;;2.37;;
84652;SDS011;74883;48.882;2.092;2024-03-23T01:43:55;4.82;;;1.40;;
84652;SDS011;74883;48.882;2.092;2024-03-23T01:46:21;19.42;;;2.60;;
84652;SDS011;74883;48.882;2.092;2024-03-23T01:48:47;15.00;;;2.70;;
84652;SDS011;74883;48.882;2.092;2024-03-23T01:51:13;18.83;;;3.25;;
84652;SDS011;74883;48.882;2.092;2024-03-23T01:53:39;14.07;;;2.83;;
84652;SDS011;74883;48.882;2.092;2024-03-23T01:56:04;19.33;;;2.35;;
84652;SDS011;74883;48.882;2.092;2024-03-23T01:58:30;12.30;;;3.33;;
84652;SDS011;74883;48.882;2.092;2024-03-23T02:00:57;22.20;;;3.03;;
84652;SDS011;74883;48.882;2.092;2024-03-23T02:03:23;16.33;;;2.58;;
84652;SDS011;74883;48.882;2.092;2024-03-23T02:05:53;28.02;;;3.97;;
84652;SDS011;74883;48.882;2.092;2024-03-23T02:08:20;13.23;;;3.45;;
84652;SDS011;74883;48.882;2.092;2024-03-23T02:10:46;12.75;;;2.25;;
84652;SDS011;74883;48.882;2.092;2024-03-23T02:13:14;17.77;;;2.75;;
84652;SDS011;74883;48.882;2.092;2024-03-23T02:15:39;13.68;;;2.70;;
84652;SDS011;74883;48.882;2.092;2024-03-23T02:18:05;13.63;;;3.03;;
84652;SDS011;74883;48.882;2.092;2024-03-23T02:20:32;18.55;;;3.40;;
84652;SDS011;74883;48.882;2.092;2024-03-23T02:22:57;18.23;;;2.80;;
84652;SDS011;74883;48.882;2.092;2024-03-23T02:25:23;22.73;;;3.67;;
84652;SDS011;74883;48.882;2.092;2024-03-23T02:27:48;18.57;;;2.67;;
84652;SDS011;74883;48.882;2.092;2024-03-23T02:30:14;15.10;;;3.47;;
84652;SDS011;74883;48.882;2.092;2024-03-23T02:32:39;19.75;;;3.15;;
84652;SDS011;74883;48.882;2.092;2024-03-23T02:35:05;11.60;;;2.13;;
84652;SDS011;74883;48.882;2.092;2024-03-23T02:37:30;23.17;;;3.13;;
84652;SDS011;74883;48.882;2.092;2024-03-23T02:39:56;13.43;;;2.05;;
84652;SDS011;74883;48.882;2.092;2024-03-23T02:42:21;12.37;;;2.20;;
84652;SDS011;74883;48.882;2.092;2024-03-23T02:44:46;20.00;;;2.60;;
84652;SDS011;74883;48.882;2.092;2024-03-23T02:47:12;6.90;;;1.53;;
84652;SDS011;74883;48.882;2.092;2024-03-23T02:49:37;9.27;;;2.08;;
84652;SDS011;74883;48.882;2.092;2024-03-23T02:52:02;13.80;;;2.30;;
84652;SDS011;74883;48.882;2.092;2024-03-23T02:54:28;15.15;;;3.20;;
84652;SDS011;74883;48.882;2.092;2024-03-23T02:56:53;16.40;;;2.60;;
84652;SDS011;74883;48.882;2.092;2024-03-23T02:59:19;11.37;;;1.70;;
84652;SDS011;74883;48.882;2.092;2024-03-23T03:01:44;19.05;;;2.88;;
84652;SDS011;74883;48.882;2.092;2024-03-23T03:04:10;18.23;;;1.87;;
84652;SDS011;74883;48.882;2.092;2024-03-23T03:06:35;12.00;;;2.63;;
84652;SDS011;74883;48.882;2.092;2024-03-23T03:09:00;22.43;;;2.63;;
84652;SDS011;74883;48.882;2.092;2024-03-23T03:11:26;11.20;;;1.50;;
84652;SDS011;74883;48.882;2.092;2024-03-23T03:13:51;10.20;;;2.00;;
84652;SDS011;74883;48.882;2.092;2024-03-23T03:16:17;15.32;;;1.88;;
84652;SDS011;74883;48.882;2.092;2024-03-23T03:18:42;15.70;;;1.87;;
84652;SDS011;74883;48.882;2.092;2024-03-23T03:21:08;12.60;;;2.55;;
84652;SDS011;74883;48.882;2.092;2024-03-23T03:23:39;6.80;;;2.70;;
84652;SDS011;74883;48.882;2.092;2024-03-23T03:26:05;11.70;;;1.70;;
84652;SDS011;74883;48.882;2.092;2024-03-23T03:28:34;16.23;;;2.13;;
84652;SDS011;74883;48.882;2.092;2024-03-23T03:30:59;12.40;;;2.53;;
84652;SDS011;74883;48.882;2.092;2024-03-23T03:33:28;9.60;;;2.00;;
84652;SDS011;74883;48.882;2.092;2024-03-23T03:35:54;18.38;;;3.05;;
84652;SDS011;74883;48.882;2.092;2024-03-23T03:38:20;13.13;;;1.98;;
84652;SDS011;74883;48.882;2.092;2024-03-23T03:40:46;26.35;;;3.92;;
84652;SDS011;74883;48.882;2.092;2024-03-23T03:43:11;18.95;;;2.97;;
84652;SDS011;74883;48.882;2.092;2024-03-23T03:45:37;18.20;;;1.92;;
84652;SDS011;74883;48.882;2.092;2024-03-23T03:48:03;9.35;;;1.92;;
84652;SDS011;74883;48.882;2.092;2024-03-23T03:50:28;19.58;;;3.03;;
84652;SDS011;74883;48.882;2.092;2024-03-23T03:52:53;12.57;;;1.77;;
84652;SDS011;74883;48.882;2.092;2024-03-23T03:55:19;7.27;;;1.43;;
84652;SDS011;74883;48.882;2.092;2024-03-23T03:57:44;11.93;;;1.75;;
84652;SDS011;74883;48.882;2.092;2024-03-23T04:00:10;22.23;;;2.60;;
84652;SDS011;74883;48.882;2.092;2024-03-23T04:02:38;14.10;;;2.05;;
84652;SDS011;74883;48.882;2.092;2024-03-23T04:05:04;7.45;;;1.63;;
84652;SDS011;74883;48.882;2.092;2024-03-23T04:07:30;16.88;;;2.53;;
84652;SDS011;74883;48.882;2.092;2024-03-23T04:09:55;21.73;;;3.35;;
84652;SDS011;74883;48.882;2.092;2024-03-23T04:12:20;11.87;;;1.67;;
84652;SDS011;74883;48.882;2.092;2024-03-23T04:14:46;17.43;;;1.97;;
84652;SDS011;74883;48.882;2.092;2024-03-23T04:17:11;20.70;;;2.72;;
84652;SDS011;74883;48.882;2.092;2024-03-23T04:19:37;17.13;;;2.80;;
84652;SDS011;74883;48.882;2.092;2024-03-23T04:22:02;18.67;;;2.58;;
84652;SDS011;74883;48.882;2.092;2024-03-23T04:24:28;13.02;;;2.13;;
84652;SDS011;74883;48.882;2.092;2024-03-23T04:26:54;21.15;;;2.20;;
84652;SDS011;74883;48.882;2.092;2024-03-23T04:29:20;11.85;;;1.83;;
84652;SDS011;74883;48.882;2.092;2024-03-23T04:31:45;20.23;;;2.53;;
84652;SDS011;74883;48.882;2.092;2024-03-23T04:34:10;17.53;;;2.30;;
84652;SDS011;74883;48.882;2.092;2024-03-23T04:36:36;13.43;;;2.03;;
84652;SDS011;74883;48.882;2.092;2024-03-23T04:39:01;21.17;;;2.70;;
84652;SDS011;74883;48.882;2.092;2024-03-23T04:41:27;12.57;;;2.00;;
84652;SDS011;74883;48.882;2.092;2024-03-23T04:43:53;19.73;;;2.92;;
84652;SDS011;74883;48.882;2.092;2024-03-23T04:46:18;20.48;;;2.42;;
84652;SDS011;74883;48.882;2.092;2024-03-23T04:48:43;16.00;;;2.40;;
84652;SDS011;74883;48.882;2.092;2024-03-23T04:51:09;12.30;;;1.92;;
84652;SDS011;74883;48.882;2.092;2024-03-23T04:53:37;15.68;;;1.88;;
84652;SDS011;74883;48.882;2.092;2024-03-23T04:56:03;15.40;;;2.92;;
84652;SDS011;74883;48.882;2.092;2024-03-23T04:58:29;20.17;;;2.67;;
84652;SDS011;74883;48.882;2.092;2024-03-23T05:00:57;15.52;;;1.55;;
84652;SDS011;74883;48.882;2.092;2024-03-23T05:03:23;17.45;;;2.42;;
84652;SDS011;74883;48.882;2.092;2024-03-23T05:05:49;17.30;;;1.98;;
84652;SDS011;74883;48.882;2.092;2024-03-23T05:08:15;18.00;;;2.70;;
84652;SDS011;74883;48.882;2.092;2024-03-23T05:10:41;20.40;;;2.50;;
84652;SDS011;74883;48.882;2.092;2024-03-23T05:13:07;9.95;;;1.90;;
84652;SDS011;74883;48.882;2.092;2024-03-23T05:15:33;15.65;;;2.40;;
84652;SDS011;74883;48.882;2.092;2024-03-23T05:17:58;8.27;;;1.27;;
84652;SDS011;74883;48.882;2.092;2024-03-23T05:20:23;9.35;;;2.15;;
84652;SDS011;74883;48.882;2.092;2024-03-23T05:22:49;11.07;;;1.80;;
84652;SDS011;74883;48.882;2.092;2024-03-23T05:25:14;4.85;;;1.10;;
84652;SDS011;74883;48.882;2.092;2024-03-23T05:27:42;6.55;;;1.70;;
84652;SDS011;74883;48.882;2.092;2024-03-23T05:30:07;25.35;;;2.42;;
84652;SDS011;74883;48.882;2.092;2024-03-23T05:32:34;12.98;;;1.58;;
84652;SDS011;74883;48.882;2.092;2024-03-23T05:34:59;9.23;;;2.13;;
84652;SDS011;74883;48.882;2.092;2024-03-23T05:37:25;10.20;;;1.58;;
84652;SDS011;74883;48.882;2.092;2024-03-23T05:39:50;9.82;;;2.00;;
84652;SDS011;74883;48.882;2.092;2024-03-23T05:42:16;14.13;;;1.60;;
84652;SDS011;74883;48.882;2.092;2024-03-23T05:44:45;7.43;;;1.40;;
84652;SDS011;74883;48.882;2.092;2024-03-23T05:47:11;6.68;;;1.40;;
84652;SDS011;74883;48.882;2.092;2024-03-23T05:49:39;3.60;;;0.80;;
84652;SDS011;74883;48.882;2.092;2024-03-23T05:52:06;3.95;;;0.82;;
84652;SDS011;74883;48.882;2.092;2024-03-23T05:54:32;2.83;;;0.43;;
84652;SDS011;74883;48.882;2.092;2024-03-23T05:56:58;10.88;;;2.22;;
84652;SDS011;74883;48.882;2.092;2024-03-23T05:59:24;6.63;;;0.98;;
84652;SDS011;74883;48.882;2.092;2024-03-23T06:01:49;6.57;;;1.20;;
84652;SDS011;74883;48.882;2.092;2024-03-23T06:04:15;9.82;;;1.83;;
84652;SDS011;74883;48.882;2.092;2024-03-23T06:06:41;12.00;;;1.45;;
84652;SDS011;74883;48.882;2.092;2024-03-23T06:09:07;4.60;;;0.90;;
84652;SDS011;74883;48.882;2.092;2024-03-23T06:11:32;12.63;;;1.43;;
84652;SDS011;74883;48.882;2.092;2024-03-23T06:13:57;3.35;;;0.98;;
84652;SDS011;74883;48.882;2.092;2024-03-23T06:16:23;6.00;;;1.00;;
84652;SDS011;74883;48.882;2.092;2024-03-23T06:18:50;6.60;;;1.40;;
84652;SDS011;74883;48.882;2.092;2024-03-23T06:21:15;6.25;;;1.23;;
84652;SDS011;74883;48.882;2.092;2024-03-23T06:23:41;8.82;;;1.33;;
84652;SDS011;74883;48.882;2.092;2024-03-23T06:26:07;3.53;;;0.90;;
84652;SDS011;74883;48.882;2.092;2024-03-23T06:28:33;16.60;;;1.73;;
84652;SDS011;74883;48.882;2.092;2024-03-23T06:30:58;8.18;;;1.48;;
84652;SDS011;74883;48.882;2.092;2024-03-23T06:33:24;12.57;;;1.53;;
84652;SDS011;74883;48.882;2.092;2024-03-23T06:35:50;3.78;;;0.45;;
84652;SDS011;74883;48.882;2.092;2024-03-23T06:38:17;4.85;;;0.90;;
84652;SDS011;74883;48.882;2.092;2024-03-23T06:40:43;8.40;;;1.50;;
84652;SDS011;74883;48.882;2.092;2024-03-23T06:43:12;8.48;;;1.25;;
84652;SDS011;74883;48.882;2.092;2024-03-23T06:45:38;7.75;;;1.58;;
84652;SDS011;74883;48.882;2.092;2024-03-23T06:48:03;7.75;;;1.50;;
84652;SDS011;74883;48.882;2.092;2024-03-23T06:50:29;3.70;;;0.43;;
84652;SDS011;74883;48.882;2.092;2024-03-23T06:52:54;7.83;;;1.50;;
84652;SDS011;74883;48.882;2.092;2024-03-23T06:55:20;8.68;;;1.33;;
84652;SDS011;74883;48.882;2.092;2024-03-23T06:57:45;8.83;;;1.30;;
84652;SDS011;74883;48.882;2.092;2024-03-23T07:00:11;4.18;;;0.82;;
84652;SDS011;74883;48.882;2.092;2024-03-23T07:02:38;3.00;;;0.65;;
84652;SDS011;74883;48.882;2.092;2024-03-23T07:05:03;6.40;;;1.00;;
84652;SDS011;74883;48.882;2.092;2024-03-23T07:07:29;4.47;;;0.90;;
84652;SDS011;74883;48.882;2.092;2024-03-23T07:09:55;3.45;;;0.65;;
84652;SDS011;74883;48.882;2.092;2024-03-23T07:12:20;6.50;;;1.77;;
84652;SDS011;74883;48.882;2.092;2024-03-23T07:14:46;9.02;;;1.90;;
84652;SDS011;74883;48.882;2.092;2024-03-23T07:17:11;9.63;;;1.65;;
84652;SDS011;74883;48.882;2.092;2024-03-23T07:19:36;12.23;;;2.40;;
84652;SDS011;74883;48.882;2.092;2024-03-23T07:22:02;9.88;;;1.50;;
84652;SDS011;74883;48.882;2.092;2024-03-23T07:24:27;7.72;;;1.48;;
84652;SDS011;74883;48.882;2.092;2024-03-23T07:26:53;5.70;;;0.90;;
84652;SDS011;74883;48.882;2.092;2024-03-23T07:29:19;9.32;;;1.63;;
84652;SDS011;74883;48.882;2.092;2024-03-23T07:31:44;7.82;;;2.05;;
84652;SDS011;74883;48.882;2.092;2024-03-23T07:34:10;4.43;;;1.40;;
84652;SDS011;74883;48.882;2.092;2024-03-23T07:36:35;12.10;;;1.40;;
84652;SDS011;74883;48.882;2.092;2024-03-23T07:39:00;11.97;;;1.97;;
84652;SDS011;74883;48.882;2.092;2024-03-23T07:41:26;12.48;;;1.65;;
84652;SDS011;74883;48.882;2.092;2024-03-23T07:43:53;12.82;;;1.90;;
84652;SDS011;74883;48.882;2.092;2024-03-23T07:46:19;6.32;;;1.23;;
84652;SDS011;74883;48.882;2.092;2024-03-23T07:48:45;9.32;;;1.48;;
84652;SDS011;74883;48.882;2.092;2024-03-23T07:51:16;9.93;;;1.90;;
84652;SDS011;74883;48.882;2.092;2024-03-23T07:53:43;5.63;;;0.82;;
84652;SDS011;74883;48.882;2.092;2024-03-23T07:56:11;5.07;;;1.00;;
84652;SDS011;74883;48.882;2.092;2024-03-23T07:58:37;2.53;;;1.00;;
84652;SDS011;74883;48.882;2.092;2024-03-23T08:01:04;2.83;;;0.77;;
84652;SDS011;74883;48.882;2.092;2024-03-23T08:03:32;5.18;;;1.38;;
84652;SDS011;74883;48.882;2.092;2024-03-23T08:06:00;2.92;;;0.85;;
84652;SDS011;74883;48.882;2.092;2024-03-23T08:08:31;6.00;;;0.82;;
84652;SDS011;74883;48.882;2.092;2024-03-23T08:10:57;8.70;;;1.63;;
84652;SDS011;74883;48.882;2.092;2024-03-23T08:13:22;8.40;;;0.80;;
84652;SDS011;74883;48.882;2.092;2024-03-23T08:15:47;3.97;;;0.97;;
84652;SDS011;74883;48.882;2.092;2024-03-23T08:18:13;4.13;;;0.77;;
84652;SDS011;74883;48.882;2.092;2024-03-23T08:20:40;5.25;;;0.90;;
84652;SDS011;74883;48.882;2.092;2024-03-23T08:23:06;5.45;;;0.82;;
84652;SDS011;74883;48.882;2.092;2024-03-23T08:25:32;4.85;;;0.40;;
84652;SDS011;74883;48.882;2.092;2024-03-23T08:27:58;7.20;;;1.13;;
84652;SDS011;74883;48.882;2.092;2024-03-23T08:30:23;7.53;;;1.33;;
84652;SDS011;74883;48.882;2.092;2024-03-23T08:32:49;5.93;;;1.25;;
84652;SDS011;74883;48.882;2.092;2024-03-23T08:35:14;4.90;;;0.98;;
84652;SDS011;74883;48.882;2.092;2024-03-23T08:37:40;7.47;;;1.42;;
84652;SDS011;74883;48.882;2.092;2024-03-23T08:40:06;3.97;;;1.10;;
84652;SDS011;74883;48.882;2.092;2024-03-23T08:44:58;8.93;;;1.47;;
84652;SDS011;74883;48.882;2.092;2024-03-23T08:47:23;2.07;;;0.70;;
84652;SDS011;74883;48.882;2.092;2024-03-23T08:49:49;8.87;;;1.03;;
84652;SDS011;74883;48.882;2.092;2024-03-23T08:52:14;1.63;;;0.55;;
84652;SDS011;74883;48.882;2.092;2024-03-23T08:54:40;7.53;;;0.90;;
84652;SDS011;74883;48.882;2.092;2024-03-23T08:57:05;7.30;;;1.10;;
84652;SDS011;74883;48.882;2.092;2024-03-23T08:59:32;4.97;;;0.88;;
84652;SDS011;74883;48.882;2.092;2024-03-23T09:01:57;5.85;;;1.13;;
84652;SDS011;74883;48.882;2.092;2024-03-23T09:04:23;4.40;;;0.95;;
84652;SDS011;74883;48.882;2.092;2024-03-23T09:06:48;3.37;;;1.00;;
84652;SDS011;74883;48.882;2.092;2024-03-23T09:09:13;4.10;;;0.90;;
84652;SDS011;74883;48.882;2.092;2024-03-23T09:11:39;3.67;;;0.40;;
84652;SDS011;74883;48.882;2.092;2024-03-23T09:14:04;9.77;;;1.38;;
84652;SDS011;74883;48.882;2.092;2024-03-23T09:16:30;6.37;;;0.90;;
84652;SDS011;74883;48.882;2.092;2024-03-23T09:18:55;11.57;;;1.60;;
84652;SDS011;74883;48.882;2.092;2024-03-23T09:21:20;4.97;;;0.77;;
84652;SDS011;74883;48.882;2.092;2024-03-23T09:23:46;8.32;;;0.77;;
84652;SDS011;74883;48.882;2.092;2024-03-23T09:26:11;7.35;;;1.65;;
84652;SDS011;74883;48.882;2.092;2024-03-23T09:28:37;4.63;;;0.50;;
84652;SDS011;74883;48.882;2.092;2024-03-23T09:31:03;1.85;;;0.35;;
84652;SDS011;74883;48.882;2.092;2024-03-23T09:33:32;7.35;;;0.82;;
84652;SDS011;74883;48.882;2.092;2024-03-23T09:36:04;6.50;;;0.75;;
84652;SDS011;74883;48.882;2.092;2024-03-23T09:38:30;4.28;;;1.23;;
84652;SDS011;74883;48.882;2.092;2024-03-23T09:40:56;3.08;;;0.60;;
84652;SDS011;74883;48.882;2.092;2024-03-23T09:43:22;4.47;;;1.25;;
84652;SDS011;74883;48.882;2.092;2024-03-23T09:45:47;8.55;;;0.70;;
84652;SDS011;74883;48.882;2.092;2024-03-23T09:48:14;2.05;;;0.85;;
84652;SDS011;74883;48.882;2.092;2024-03-23T09:50:41;7.88;;;1.17;;
84652;SDS011;74883;48.882;2.092;2024-03-23T09:55:35;5.75;;;0.50;;
84652;SDS011;74883;48.882;2.092;2024-03-23T09:58:01;2.70;;;0.60;;
84652;SDS011;74883;48.882;2.092;2024-03-23T10:00:27;7.53;;;0.98;;
84652;SDS011;74883;48.882;2.092;2024-03-23T10:02:54;3.90;;;1.40;;
84652;SDS011;74883;48.882;2.092;2024-03-23T10:05:20;5.85;;;1.15;;
84652;SDS011;74883;48.882;2.092;2024-03-23T10:10:13;4.95;;;1.00;;
84652;SDS011;74883;48.882;2.092;2024-03-23T10:12:43;8.07;;;1.15;;
84652;SDS011;74883;48.882;2.092;2024-03-23T10:15:15;14.07;;;2.13;;
84652;SDS011;74883;48.882;2.092;2024-03-23T10:17:43;1.73;;;0.60;;
84652;SDS011;74883;48.882;2.092;2024-03-23T10:20:09;14.15;;;1.50;;
84652;SDS011;74883;48.882;2.092;2024-03-23T10:22:37;10.48;;;1.23;;
84652;SDS011;74883;48.882;2.092;2024-03-23T10:25:10;8.88;;;0.88;;
84652;SDS011;74883;48.882;2.092;2024-03-23T10:27:36;7.22;;;1.15;;
84652;SDS011;74883;48.882;2.092;2024-03-23T10:30:11;5.97;;;0.88;;
84652;SDS011;74883;48.882;2.092;2024-03-23T10:32:39;4.70;;;0.75;;
84652;SDS011;74883;48.882;2.092;2024-03-23T10:35:15;5.88;;;1.17;;
84652;SDS011;74883;48.882;2.092;2024-03-23T10:37:44;6.38;;;1.00;;
84652;SDS011;74883;48.882;2.092;2024-03-23T10:40:10;7.70;;;1.38;;
84652;SDS011;74883;48.882;2.092;2024-03-23T10:42:37;8.77;;;0.90;;
84652;SDS011;74883;48.882;2.092;2024-03-23T10:45:07;4.40;;;0.98;;
84652;SDS011;74883;48.882;2.092;2024-03-23T10:47:36;4.53;;;0.85;;
84652;SDS011;74883;48.882;2.092;2024-03-23T10:50:05;6.18;;;0.80;;
84652;SDS011;74883;48.882;2.092;2024-03-23T10:52:34;6.93;;;0.82;;
84652;SDS011;74883;48.882;2.092;2024-03-23T10:55:00;6.32;;;0.73;;
84652;SDS011;74883;48.882;2.092;2024-03-23T10:57:31;5.97;;;1.10;;
84652;SDS011;74883;48.882;2.092;2024-03-23T11:00:04;4.25;;;1.13;;
84652;SDS011;74883;48.882;2.092;2024-03-23T11:02:30;5.15;;;0.70;;
84652;SDS011;74883;48.882;2.092;2024-03-23T11:04:56;3.08;;;0.80;;
84652;SDS011;74883;48.882;2.092;2024-03-23T11:09:50;6.50;;;0.88;;
84652;SDS011;74883;48.882;2.092;2024-03-23T11:14:49;3.65;;;1.00;;
84652;SDS011;74883;48.882;2.092;2024-03-23T11:17:22;7.53;;;0.85;;
84652;SDS011;74883;48.882;2.092;2024-03-23T11:19:56;2.33;;;0.70;;
84652;SDS011;74883;48.882;2.092;2024-03-23T11:25:15;3.42;;;0.68;;
84652;SDS011;74883;48.882;2.092;2024-03-23T11:27:41;3.70;;;1.13;;
84652;SDS011;74883;48.882;2.092;2024-03-23T11:32:36;5.60;;;1.00;;
84652;SDS011;74883;48.882;2.092;2024-03-23T11:35:01;4.73;;;1.03;;
84652;SDS011;74883;48.882;2.092;2024-03-23T11:37:27;6.07;;;1.20;;
84652;SDS011;74883;48.882;2.092;2024-03-23T11:39:52;2.90;;;0.47;;
84652;SDS011;74883;48.882;2.092;2024-03-23T11:42:17;2.03;;;0.70;;
84652;SDS011;74883;48.882;2.092;2024-03-23T11:44:43;3.03;;;0.80;;
84652;SDS011;74883;48.882;2.092;2024-03-23T11:47:08;5.03;;;1.17;;
84652;SDS011;74883;48.882;2.092;2024-03-23T11:49:35;5.93;;;0.73;;
84652;SDS011;74883;48.882;2.092;2024-03-23T11:52:05;1.33;;;0.60;;
84652;SDS011;74883;48.882;2.092;2024-03-23T11:54:31;4.63;;;0.82;;
84652;SDS011;74883;48.882;2.092;2024-03-23T11:57:00;6.55;;;0.90;;
84652;SDS011;74883;48.882;2.092;2024-03-23T11:59:33;11.55;;;1.60;;
84652;SDS011;74883;48.882;2.092;2024-03-23T12:02:00;3.72;;;0.70;;
84652;SDS011;74883;48.882;2.092;2024-03-23T12:04:29;2.97;;;0.50;;
84652;SDS011;74883;48.882;2.092;2024-03-23T12:07:14;8.60;;;1.42;;
84652;SDS011;74883;48.882;2.092;2024-03-23T12:09:42;7.22;;;1.00;;
84652;SDS011;74883;48.882;2.092;2024-03-23T12:12:17;5.45;;;0.70;;
84652;SDS011;74883;48.882;2.092;2024-03-23T12:14:44;2.58;;;0.43;;
84652;SDS011;74883;48.882;2.092;2024-03-23T12:17:14;5.82;;;1.27;;
84652;SDS011;74883;48.882;2.092;2024-03-23T12:19:40;2.63;;;0.47;;
84652;SDS011;74883;48.882;2.092;2024-03-23T12:22:09;5.75;;;0.65;;
84652;SDS011;74883;48.882;2.092;2024-03-23T12:24:35;5.60;;;0.82;;
84652;SDS011;74883;48.882;2.092;2024-03-23T12:27:10;2.90;;;0.68;;
84652;SDS011;74883;48.882;2.092;2024-03-23T12:29:35;6.32;;;0.82;;
84652;SDS011;74883;48.882;2.092;2024-03-23T12:32:01;3.63;;;0.83;;
84652;SDS011;74883;48.882;2.092;2024-03-23T12:34:27;3.58;;;0.60;;
84652;SDS011;74883;48.882;2.092;2024-03-23T12:36:53;7.25;;;1.00;;
84652;SDS011;74883;48.882;2.092;2024-03-23T12:39:19;8.77;;;0.98;;
84652;SDS011;74883;48.882;2.092;2024-03-23T12:41:48;8.38;;;1.15;;
84652;SDS011;74883;48.882;2.092;2024-03-23T12:44:14;6.35;;;0.98;;
84652;SDS011;74883;48.882;2.092;2024-03-23T12:46:40;4.53;;;0.73;;
84652;SDS011;74883;48.882;2.092;2024-03-23T12:49:09;5.93;;;0.90;;
84652;SDS011;74883;48.882;2.092;2024-03-23T12:51:34;4.72;;;0.90;;
84652;SDS011;74883;48.882;2.092;2024-03-23T12:54:00;6.93;;;0.57;;
84652;SDS011;74883;48.882;2.092;2024-03-23T12:56:25;6.93;;;1.60;;
84652;SDS011;74883;48.882;2.092;2024-03-23T12:58:53;8.10;;;1.10;;
84652;SDS011;74883;48.882;2.092;2024-03-23T13:01:19;5.40;;;0.60;;
84652;SDS011;74883;48.882;2.092;2024-03-23T13:03:47;5.40;;;0.93;;
84652;SDS011;74883;48.882;2.092;2024-03-23T13:06:13;7.82;;;1.77;;
84652;SDS011;74883;48.882;2.092;2024-03-23T13:08:38;6.30;;;1.05;;
84652;SDS011;74883;48.882;2.092;2024-03-23T13:11:05;4.78;;;0.77;;
84652;SDS011;74883;48.882;2.092;2024-03-23T13:13:31;4.55;;;0.80;;
84652;SDS011;74883;48.882;2.092;2024-03-23T13:15:58;3.58;;;0.85;;
84652;SDS011;74883;48.882;2.092;2024-03-23T13:18:23;3.70;;;0.73;;
84652;SDS011;74883;48.882;2.092;2024-03-23T13:20:49;7.25;;;1.38;;
84652;SDS011;74883;48.882;2.092;2024-03-23T13:23:14;7.10;;;1.23;;
84652;SDS011;74883;48.882;2.092;2024-03-23T13:25:39;3.47;;;1.10;;
84652;SDS011;74883;48.882;2.092;2024-03-23T13:28:05;4.78;;;1.10;;
84652;SDS011;74883;48.882;2.092;2024-03-23T13:30:30;4.13;;;0.75;;
84652;SDS011;74883;48.882;2.092;2024-03-23T13:32:56;1.10;;;0.47;;
84652;SDS011;74883;48.882;2.092;2024-03-23T13:35:21;7.73;;;0.80;;
84652;SDS011;74883;48.882;2.092;2024-03-23T13:37:47;2.45;;;0.77;;
84652;SDS011;74883;48.882;2.092;2024-03-23T13:40:13;4.88;;;0.80;;
84652;SDS011;74883;48.882;2.092;2024-03-23T13:42:39;3.95;;;0.80;;
84652;SDS011;74883;48.882;2.092;2024-03-23T13:45:04;7.07;;;1.00;;
84652;SDS011;74883;48.882;2.092;2024-03-23T13:47:30;6.93;;;1.27;;
84652;SDS011;74883;48.882;2.092;2024-03-23T13:49:55;1.70;;;0.70;;
84652;SDS011;74883;48.882;2.092;2024-03-23T13:52:21;1.25;;;0.52;;
84652;SDS011;74883;48.882;2.092;2024-03-23T13:54:49;2.47;;;0.50;;
84652;SDS011;74883;48.882;2.092;2024-03-23T13:57:15;1.23;;;0.50;;
84652;SDS011;74883;48.882;2.092;2024-03-23T13:59:40;0.83;;;0.40;;
84652;SDS011;74883;48.882;2.092;2024-03-23T14:02:05;1.63;;;0.50;;
84652;SDS011;74883;48.882;2.092;2024-03-23T14:04:31;3.25;;;0.73;;
84652;SDS011;74883;48.882;2.092;2024-03-23T14:06:56;2.33;;;0.70;;
84652;SDS011;74883;48.882;2.092;2024-03-23T14:09:23;3.20;;;1.10;;
84652;SDS011;74883;48.882;2.092;2024-03-23T14:11:50;2.85;;;0.52;;
84652;SDS011;74883;48.882;2.092;2024-03-23T14:14:16;3.75;;;0.73;;
84652;SDS011;74883;48.882;2.092;2024-03-23T14:16:42;3.28;;;0.88;;
84652;SDS011;74883;48.882;2.092;2024-03-23T14:19:07;3.42;;;0.57;;
84652;SDS011;74883;48.882;2.092;2024-03-23T14:21:33;3.55;;;0.47;;
84652;SDS011;74883;48.882;2.092;2024-03-23T14:24:01;6.20;;;0.95;;
84652;SDS011;74883;48.882;2.092;2024-03-23T14:26:27;2.65;;;0.47;;
84652;SDS011;74883;48.882;2.092;2024-03-23T14:28:53;3.67;;;0.73;;
84652;SDS011;74883;48.882;2.092;2024-03-23T14:31:25;5.40;;;0.73;;
84652;SDS011;74883;48.882;2.092;2024-03-23T14:33:50;1.90;;;0.60;;
84652;SDS011;74883;48.882;2.092;2024-03-23T14:36:16;3.13;;;1.03;;
84652;SDS011;74883;48.882;2.092;2024-03-23T14:38:48;1.00;;;0.20;;
84652;SDS011;74883;48.882;2.092;2024-03-23T14:41:14;1.65;;;0.32;;
84652;SDS011;74883;48.882;2.092;2024-03-23T14:43:39;7.35;;;1.13;;
84652;SDS011;74883;48.882;2.092;2024-03-23T14:46:11;4.20;;;0.60;;
84652;SDS011;74883;48.882;2.092;2024-03-23T14:48:39;4.25;;;0.57;;
84652;SDS011;74883;48.882;2.092;2024-03-23T14:51:05;3.95;;;0.75;;
84652;SDS011;74883;48.882;2.092;2024-03-23T14:53:31;2.35;;;0.60;;
84652;SDS011;74883;48.882;2.092;2024-03-23T14:55:57;2.83;;;0.82;;
84652;SDS011;74883;48.882;2.092;2024-03-23T14:58:24;1.88;;;0.95;;
84652;SDS011;74883;48.882;2.092;2024-03-23T15:00:50;2.38;;;0.90;;
84652;SDS011;74883;48.882;2.092;2024-03-23T15:03:16;4.55;;;1.00;;
84652;SDS011;74883;48.882;2.092;2024-03-23T15:05:42;2.95;;;0.88;;
84652;SDS011;74883;48.882;2.092;2024-03-23T15:08:08;5.63;;;1.00;;
84652;SDS011;74883;48.882;2.092;2024-03-23T15:10:33;7.35;;;0.98;;
84652;SDS011;74883;48.882;2.092;2024-03-23T15:12:59;12.43;;;1.33;;
84652;SDS011;74883;48.882;2.092;2024-03-23T15:15:24;6.10;;;1.50;;
84652;SDS011;74883;48.882;2.092;2024-03-23T15:17:50;5.45;;;1.10;;
84652;SDS011;74883;48.882;2.092;2024-03-23T15:20:15;5.82;;;0.90;;
84652;SDS011;74883;48.882;2.092;2024-03-23T15:22:41;5.97;;;0.95;;
84652;SDS011;74883;48.882;2.092;2024-03-23T15:25:07;5.78;;;0.77;;
84652;SDS011;74883;48.882;2.092;2024-03-23T15:27:33;3.17;;;0.90;;
84652;SDS011;74883;48.882;2.092;2024-03-23T15:29:59;4.22;;;0.98;;
84652;SDS011;74883;48.882;2.092;2024-03-23T15:32:24;1.55;;;0.28;;
84652;SDS011;74883;48.882;2.092;2024-03-23T15:34:50;5.30;;;1.15;;
84652;SDS011;74883;48.882;2.092;2024-03-23T15:37:15;3.17;;;0.63;;
84652;SDS011;74883;48.882;2.092;2024-03-23T15:39:41;4.22;;;1.08;;
84652;SDS011;74883;48.882;2.092;2024-03-23T15:42:09;7.55;;;1.60;;
84652;SDS011;74883;48.882;2.092;2024-03-23T15:44:35;3.65;;;0.85;;
84652;SDS011;74883;48.882;2.092;2024-03-23T15:47:00;4.93;;;1.00;;
84652;SDS011;74883;48.882;2.092;2024-03-23T15:49:26;3.33;;;0.90;;